createdAt,value
2018-11-01T00:01:17.311Z,7.90
2018-11-01T00:03:45.807Z,7.90
2018-11-01T00:06:14.493Z,7.80
2018-11-01T00:08:43.032Z,7.80
2018-11-01T00:11:11.564Z,7.80
2018-11-01T00:13:40.182Z,7.80
2018-11-01T00:16:08.796Z,7.80
2018-11-01T00:18:37.436Z,7.70
2018-11-01T00:21:07.052Z,7.70
2018-11-01T00:23:35.873Z,7.70
2018-11-01T00:26:04.512Z,7.70
2018-11-01T00:28:33.136Z,7.70
2018-11-01T00:31:01.643Z,7.70
2018-11-01T00:33:30.567Z,7.70
2018-11-01T00:35:59.114Z,7.70
2018-11-01T00:38:27.928Z,7.70
2018-11-01T00:40:56.460Z,7.70
2018-11-01T00:43:24.978Z,7.70
2018-11-01T00:45:53.688Z,7.60
2018-11-01T00:48:22.294Z,7.60
2018-11-01T00:50:50.978Z,7.60
2018-11-01T00:53:19.649Z,7.60
2018-11-01T00:55:48.307Z,7.60
2018-11-01T00:58:16.935Z,7.50
2018-11-01T01:00:45.485Z,7.50
2018-11-01T01:03:14.036Z,7.50
2018-11-01T01:05:43.519Z,7.50
2018-11-01T01:08:12.086Z,7.50
2018-11-01T01:10:40.664Z,7.50
2018-11-01T01:13:09.363Z,7.50
2018-11-01T01:15:37.945Z,7.50
2018-11-01T01:18:06.567Z,7.50
2018-11-01T01:20:35.162Z,7.60
2018-11-01T01:23:03.760Z,7.60
2018-11-01T01:25:32.411Z,7.60
2018-11-01T01:28:01.052Z,7.60
2018-11-01T01:30:29.665Z,7.60
2018-11-01T01:32:58.273Z,7.60
2018-11-01T01:35:26.829Z,7.70
2018-11-01T01:37:55.452Z,7.70
2018-11-01T01:40:24.021Z,7.70
2018-11-01T01:42:53.857Z,7.70
2018-11-01T01:45:23.043Z,7.70
2018-11-01T01:47:51.720Z,7.70
2018-11-01T01:50:20.743Z,7.70
2018-11-01T01:52:49.586Z,7.70
2018-11-01T01:55:18.228Z,7.60
2018-11-01T01:57:46.792Z,7.60
2018-11-01T02:00:17.670Z,7.60
2018-11-01T02:02:48.432Z,7.60
2018-11-01T02:05:17.152Z,7.60
2018-11-01T02:07:45.997Z,7.60
2018-11-01T02:10:15.655Z,7.60
2018-11-01T02:12:44.326Z,7.60
2018-11-01T02:15:18.190Z,7.60
2018-11-01T02:17:48.674Z,7.60
2018-11-01T02:20:18.705Z,7.60
2018-11-01T02:22:47.635Z,7.70
2018-11-01T02:25:16.204Z,7.70
2018-11-01T02:27:50.234Z,7.70
2018-11-01T02:30:19.327Z,7.70
2018-11-01T02:32:48.111Z,7.70
2018-11-01T02:35:18.773Z,7.70
2018-11-01T02:37:48.379Z,7.80
2018-11-01T02:40:17.274Z,7.80
2018-11-01T02:42:45.948Z,7.80
2018-11-01T02:45:15.316Z,7.90
2018-11-01T02:47:44.003Z,7.90
2018-11-01T02:50:13.437Z,7.90
2018-11-01T02:52:42.041Z,7.90
2018-11-01T02:55:11.151Z,7.90
2018-11-01T02:57:39.690Z,7.90
2018-11-01T03:00:12.847Z,7.90
2018-11-01T03:02:41.409Z,7.90
2018-11-01T03:05:10.929Z,7.90
2018-11-01T03:07:39.554Z,7.90
2018-11-01T03:10:09.646Z,7.90
2018-11-01T03:12:38.208Z,7.90
2018-11-01T03:15:07.901Z,7.90
2018-11-01T03:17:36.575Z,7.90
2018-11-01T03:20:05.925Z,7.90
2018-11-01T03:22:34.483Z,7.90
2018-11-01T03:25:03.292Z,7.90
2018-11-01T03:27:32.055Z,7.90
2018-11-01T03:30:11.676Z,7.90
2018-11-01T03:32:40.257Z,7.90
2018-11-01T03:35:09.584Z,7.90
2018-11-01T03:37:38.128Z,7.90
2018-11-01T03:40:08.000Z,7.90
2018-11-01T03:42:36.624Z,7.90
2018-11-01T03:45:06.120Z,7.90
2018-11-01T03:47:34.626Z,7.90
2018-11-01T03:50:03.219Z,7.90
2018-11-01T03:52:31.734Z,7.90
2018-11-01T03:55:00.165Z,7.90
2018-11-01T03:57:28.729Z,7.90
2018-11-01T03:59:57.218Z,7.80
2018-11-01T04:02:25.735Z,7.80
2018-11-01T04:04:54.371Z,7.80
2018-11-01T04:07:22.911Z,7.70
2018-11-01T04:09:51.386Z,7.70
2018-11-01T04:12:19.927Z,7.70
2018-11-01T04:14:48.440Z,7.60
2018-11-01T04:17:17.085Z,7.50
2018-11-01T04:19:45.596Z,7.50
2018-11-01T04:22:14.175Z,7.40
2018-11-01T04:24:42.756Z,7.40
2018-11-01T04:27:11.279Z,7.30
2018-11-01T04:29:39.869Z,7.30
2018-11-01T04:32:08.453Z,7.30
2018-11-01T04:34:37.006Z,7.20
2018-11-01T04:37:05.973Z,7.20
2018-11-01T04:39:34.536Z,7.10
2018-11-01T04:42:03.091Z,7.10
2018-11-01T04:44:31.759Z,7.00
2018-11-01T04:47:00.373Z,7.00
2018-11-01T04:49:29.119Z,7.00
2018-11-01T04:51:57.748Z,6.90
2018-11-01T04:54:26.316Z,6.90
2018-11-01T04:56:54.936Z,6.80
2018-11-01T04:59:23.520Z,6.80
2018-11-01T05:01:52.220Z,6.80
2018-11-01T05:04:20.792Z,6.70
2018-11-01T05:06:49.422Z,6.70
2018-11-01T05:09:18.151Z,6.70
2018-11-01T05:11:46.792Z,6.60
2018-11-01T05:14:15.894Z,6.60
2018-11-01T05:16:44.664Z,6.60
2018-11-01T05:19:13.375Z,6.50
2018-11-01T05:21:41.923Z,6.50
2018-11-01T05:24:10.523Z,6.50
2018-11-01T05:26:39.113Z,6.50
2018-11-01T05:29:07.678Z,6.50
2018-11-01T05:31:36.278Z,6.50
2018-11-01T05:34:05.142Z,6.50
2018-11-01T05:36:33.779Z,6.60
2018-11-01T05:39:02.335Z,6.60
2018-11-01T05:41:30.925Z,6.60
2018-11-01T05:44:00.306Z,6.60
2018-11-01T05:46:28.936Z,6.60
2018-11-01T05:48:58.423Z,6.70
2018-11-01T05:51:27.045Z,6.70
2018-11-01T05:53:55.685Z,6.70
2018-11-01T05:56:24.316Z,6.70
2018-11-01T05:58:56.157Z,6.70
2018-11-01T06:01:30.248Z,6.70
2018-11-01T06:03:58.857Z,6.70
2018-11-01T06:06:27.407Z,6.70
2018-11-01T06:08:56.636Z,6.70
2018-11-01T06:11:25.212Z,6.70
2018-11-01T06:13:54.080Z,6.60
2018-11-01T06:16:22.921Z,6.60
2018-11-01T06:18:51.938Z,6.60
2018-11-01T06:21:21.039Z,6.60
2018-11-01T06:23:49.595Z,6.60
2018-11-01T06:26:18.325Z,6.60
2018-11-01T06:28:47.040Z,6.60
2018-11-01T06:31:15.814Z,6.60
2018-11-01T06:33:44.902Z,6.60
2018-11-01T06:36:15.198Z,6.60
2018-11-01T06:38:44.253Z,6.60
2018-11-01T06:41:13.116Z,6.60
2018-11-01T06:43:41.852Z,6.60
2018-11-01T06:46:10.542Z,6.60
2018-11-01T06:48:39.139Z,6.60
2018-11-01T06:51:07.935Z,6.70
2018-11-01T06:53:36.655Z,6.70
2018-11-01T06:56:05.585Z,6.70
2018-11-01T06:58:34.361Z,6.70
2018-11-01T07:01:02.906Z,6.70
2018-11-01T07:03:31.546Z,6.70
2018-11-01T07:06:00.459Z,6.70
2018-11-01T07:08:29.231Z,6.70
2018-11-01T07:10:57.876Z,6.70
2018-11-01T07:13:26.556Z,6.80
2018-11-01T07:15:55.217Z,6.80
2018-11-01T07:18:23.976Z,6.80
2018-11-01T07:20:52.630Z,6.90
2018-11-01T07:23:21.325Z,6.90
2018-11-01T07:25:50.098Z,6.90
2018-11-01T07:28:18.723Z,7.00
2018-11-01T07:30:47.282Z,7.00
2018-11-01T07:33:16.011Z,7.10
2018-11-01T07:35:44.712Z,7.20
2018-11-01T07:38:13.427Z,7.20
2018-11-01T07:40:42.061Z,7.20
2018-11-01T07:43:10.676Z,7.20
2018-11-01T07:45:39.344Z,7.30
2018-11-01T07:48:08.022Z,7.30
2018-11-01T07:50:36.727Z,7.30
2018-11-01T07:53:05.346Z,7.40
2018-11-01T07:55:33.961Z,7.40
2018-11-01T07:58:02.569Z,7.40
2018-11-01T08:00:31.179Z,7.50
2018-11-01T08:02:59.726Z,7.50
2018-11-01T08:05:28.290Z,7.50
2018-11-01T08:07:56.903Z,7.50
2018-11-01T08:10:25.542Z,7.50
2018-11-01T08:12:54.056Z,7.60
2018-11-01T08:15:22.686Z,7.60
2018-11-01T08:17:51.218Z,7.60
2018-11-01T08:20:19.966Z,7.60
2018-11-01T08:22:48.344Z,7.60
2018-11-01T08:25:16.873Z,7.60
2018-11-01T08:27:45.436Z,7.60
2018-11-01T08:30:17.769Z,7.70
2018-11-01T08:32:46.564Z,7.70
2018-11-01T08:35:15.456Z,7.70
2018-11-01T08:37:44.779Z,7.70
2018-11-01T08:40:13.911Z,7.80
2018-11-01T08:42:42.908Z,7.90
2018-11-01T08:45:12.854Z,7.90
2018-11-01T08:47:41.705Z,8.00
2018-11-01T08:50:11.692Z,8.00
2018-11-01T08:52:41.014Z,8.10
2018-11-01T08:55:10.319Z,8.20
2018-11-01T08:57:39.589Z,8.20
2018-11-01T09:00:08.733Z,8.30
2018-11-01T09:02:37.575Z,8.30
2018-11-01T09:05:07.317Z,8.30
2018-11-01T09:07:36.204Z,8.30
2018-11-01T09:10:06.687Z,8.40
2018-11-01T09:12:35.325Z,8.40
2018-11-01T09:15:03.986Z,8.50
2018-11-01T09:17:32.626Z,8.50
2018-11-01T09:20:01.191Z,8.50
2018-11-01T09:22:29.867Z,8.50
2018-11-01T09:24:58.708Z,8.60
2018-11-01T09:27:27.284Z,8.60
2018-11-01T09:29:56.027Z,8.70
2018-11-01T09:32:24.717Z,8.70
2018-11-01T09:34:53.397Z,8.70
2018-11-01T09:37:21.985Z,8.70
2018-11-01T09:39:50.580Z,8.80
2018-11-01T09:42:19.139Z,8.90
2018-11-01T09:44:47.939Z,8.90
2018-11-01T09:47:17.035Z,9.00
2018-11-01T09:49:45.355Z,9.10
2018-11-01T09:52:13.939Z,9.10
2018-11-01T09:54:42.553Z,9.20
2018-11-01T09:57:11.102Z,9.20
2018-11-01T09:59:39.656Z,9.20
2018-11-01T10:02:08.286Z,9.20
2018-11-01T10:04:36.999Z,9.20
2018-11-01T10:07:05.639Z,9.20
2018-11-01T10:09:34.206Z,9.20
2018-11-01T10:12:02.805Z,9.30
2018-11-01T10:14:31.324Z,9.30
2018-11-01T10:17:00.129Z,9.30
2018-11-01T10:19:28.620Z,9.30
2018-11-01T10:21:57.308Z,9.40
2018-11-01T10:24:25.752Z,9.40
2018-11-01T10:26:54.394Z,9.40
2018-11-01T10:29:22.868Z,9.50
2018-11-01T10:31:51.543Z,9.50
2018-11-01T10:34:20.136Z,9.60
2018-11-01T10:36:48.818Z,9.60
2018-11-01T10:39:17.389Z,9.70
2018-11-01T10:41:45.986Z,9.70
2018-11-01T10:44:14.542Z,9.80
2018-11-01T10:46:43.123Z,9.80
2018-11-01T10:49:11.716Z,9.80
2018-11-01T10:51:40.269Z,9.90
2018-11-01T10:54:08.783Z,9.90
2018-11-01T10:56:37.389Z,9.90
2018-11-01T10:59:06.240Z,10.00
2018-11-01T11:01:41.968Z,10.00
2018-11-01T11:04:10.643Z,10.10
2018-11-01T11:06:39.229Z,10.10
2018-11-01T11:09:08.883Z,10.10
2018-11-01T11:11:37.412Z,10.10
2018-11-01T11:14:06.535Z,10.10
2018-11-01T11:16:35.038Z,10.10
2018-11-01T11:19:03.759Z,10.20
2018-11-01T11:21:32.365Z,10.20
2018-11-01T11:24:00.882Z,10.20
2018-11-01T11:26:29.519Z,10.20
2018-11-01T11:28:58.208Z,10.20
2018-11-01T11:31:26.841Z,10.20
2018-11-01T11:33:55.559Z,10.20
2018-11-01T11:36:24.116Z,10.20
2018-11-01T11:38:52.751Z,10.20
2018-11-01T11:41:21.283Z,10.20
2018-11-01T11:43:49.802Z,10.20
2018-11-01T11:46:19.207Z,10.20
2018-11-01T11:48:47.767Z,10.20
2018-11-01T11:51:16.430Z,10.30
2018-11-01T11:53:45.027Z,10.30
2018-11-01T11:56:13.562Z,10.30
2018-11-01T11:58:42.090Z,10.30
2018-11-01T12:01:10.687Z,10.30
2018-11-01T12:03:39.273Z,10.40
2018-11-01T12:06:08.004Z,10.40
2018-11-01T12:08:36.462Z,10.40
2018-11-01T12:11:05.207Z,10.40
2018-11-01T12:13:33.779Z,10.40
2018-11-01T12:16:02.327Z,10.40
2018-11-01T12:18:30.893Z,10.40
2018-11-01T12:20:59.424Z,10.40
2018-11-01T12:23:27.979Z,10.40
2018-11-01T12:25:56.598Z,10.40
2018-11-01T12:28:25.342Z,10.40
2018-11-01T12:30:53.796Z,10.40
2018-11-01T12:33:22.385Z,10.40
2018-11-01T12:35:50.996Z,10.40
2018-11-01T12:38:19.561Z,10.40
2018-11-01T12:40:48.173Z,10.40
2018-11-01T12:43:16.712Z,10.40
2018-11-01T12:45:45.410Z,10.30
2018-11-01T12:48:13.982Z,10.30
2018-11-01T12:50:42.543Z,10.30
2018-11-01T12:53:11.143Z,10.30
2018-11-01T12:55:39.699Z,10.30
2018-11-01T12:58:08.413Z,10.20
2018-11-01T13:00:37.060Z,10.20
2018-11-01T13:03:05.670Z,10.20
2018-11-01T13:05:34.213Z,10.20
2018-11-01T13:08:02.765Z,10.20
2018-11-01T13:10:31.330Z,10.20
2018-11-01T13:13:00.295Z,10.20
2018-11-01T13:15:28.934Z,10.30
2018-11-01T13:17:57.466Z,10.20
2018-11-01T13:20:25.912Z,10.20
2018-11-01T13:22:54.430Z,10.30
2018-11-01T13:25:23.205Z,10.20
2018-11-01T13:27:52.144Z,10.30
2018-11-01T13:30:21.331Z,10.20
2018-11-01T13:32:49.876Z,10.30
2018-11-01T13:35:18.386Z,10.20
2018-11-01T13:37:47.058Z,10.20
2018-11-01T13:40:16.054Z,10.20
2018-11-01T13:42:44.407Z,10.20
2018-11-01T13:45:12.897Z,10.20
2018-11-01T13:47:45.776Z,10.10
2018-11-01T13:50:14.258Z,10.10
2018-11-01T13:52:42.746Z,10.10
2018-11-01T13:55:12.247Z,10.10
2018-11-01T13:57:40.768Z,10.00
2018-11-01T14:00:10.337Z,10.10
2018-11-01T14:02:40.147Z,10.00
2018-11-01T14:05:16.489Z,10.00
2018-11-01T14:07:45.943Z,10.00
2018-11-01T14:10:15.539Z,10.00
2018-11-01T14:12:44.136Z,10.00
2018-11-01T14:15:12.921Z,10.00
2018-11-01T14:17:41.616Z,9.90
2018-11-01T14:20:11.518Z,9.90
2018-11-01T14:22:40.026Z,9.90
2018-11-01T14:25:09.627Z,9.90
2018-11-01T14:27:38.093Z,9.90
2018-11-01T14:30:09.261Z,9.90
2018-11-01T14:32:37.875Z,9.90
2018-11-01T14:35:07.141Z,9.80
2018-11-01T14:37:35.608Z,9.80
2018-11-01T14:40:04.773Z,9.80
2018-11-01T14:42:33.248Z,9.80
2018-11-01T14:45:01.827Z,9.80
2018-11-01T14:47:30.298Z,9.80
2018-11-01T14:49:58.844Z,9.80
2018-11-01T14:52:27.744Z,9.80
2018-11-01T14:54:56.918Z,9.80
2018-11-01T14:57:25.970Z,9.80
2018-11-01T14:59:53.859Z,9.80
2018-11-01T15:02:21.812Z,9.80
2018-11-01T15:04:50.313Z,9.80
2018-11-01T15:07:18.974Z,9.80
2018-11-01T15:09:47.457Z,9.80
2018-11-01T15:12:15.979Z,9.80
2018-11-01T15:14:44.445Z,9.70
2018-11-01T15:17:13.651Z,9.70
2018-11-01T15:19:42.201Z,9.70
2018-11-01T15:22:10.646Z,9.70
2018-11-01T15:24:39.177Z,9.70
2018-11-01T15:27:07.683Z,9.70
2018-11-01T15:29:36.303Z,9.70
2018-11-01T15:32:05.012Z,9.70
2018-11-01T15:34:34.164Z,9.60
2018-11-01T15:37:02.636Z,9.60
2018-11-01T15:39:31.166Z,9.60
2018-11-01T15:41:59.669Z,9.60
2018-11-01T15:44:28.244Z,9.60
2018-11-01T15:46:56.787Z,9.60
2018-11-01T15:49:25.338Z,9.60
2018-11-01T15:51:53.919Z,9.60
2018-11-01T15:54:22.384Z,9.60
2018-11-01T15:56:50.815Z,9.50
2018-11-01T15:59:19.438Z,9.50
2018-11-01T16:01:47.968Z,9.50
2018-11-01T16:04:16.505Z,9.50
2018-11-01T16:06:45.071Z,9.50
2018-11-01T16:09:14.146Z,9.50
2018-11-01T16:11:42.974Z,9.50
2018-11-01T16:14:11.896Z,9.50
2018-11-01T16:16:40.858Z,9.40
2018-11-01T16:19:10.301Z,9.40
2018-11-01T16:21:38.933Z,9.40
2018-11-01T16:24:07.616Z,9.40
2018-11-01T16:26:36.097Z,9.40
2018-11-01T16:29:04.731Z,9.40
2018-11-01T16:31:33.254Z,9.40
2018-11-01T16:34:02.081Z,9.40
2018-11-01T16:36:30.710Z,9.40
2018-11-01T16:38:59.326Z,9.40
2018-11-01T16:41:27.896Z,9.40
2018-11-01T16:43:56.466Z,9.40
2018-11-01T16:46:25.019Z,9.40
2018-11-01T16:48:53.628Z,9.30
2018-11-01T16:51:22.185Z,9.30
2018-11-01T16:53:50.726Z,9.30
2018-11-01T16:56:19.285Z,9.30
2018-11-01T16:58:47.768Z,9.30
2018-11-01T17:01:16.316Z,9.30
2018-11-01T17:03:44.834Z,9.30
2018-11-01T17:06:13.371Z,9.30
2018-11-01T17:08:42.016Z,9.30
2018-11-01T17:11:10.473Z,9.30
2018-11-01T17:13:39.017Z,9.30
2018-11-01T17:16:08.006Z,9.20
2018-11-01T17:18:36.519Z,9.20
2018-11-01T17:21:05.145Z,9.20
2018-11-01T17:23:33.643Z,9.20
2018-11-01T17:26:02.208Z,9.20
2018-11-01T17:28:30.727Z,9.20
2018-11-01T17:30:59.271Z,9.20
2018-11-01T17:33:27.879Z,9.20
2018-11-01T17:35:56.473Z,9.20
2018-11-01T17:38:25.032Z,9.20
2018-11-01T17:40:53.581Z,9.20
2018-11-01T17:43:22.180Z,9.20
2018-11-01T17:45:50.648Z,9.20
2018-11-01T17:48:19.285Z,9.20
2018-11-01T17:50:47.799Z,9.20
2018-11-01T17:53:16.302Z,9.20
2018-11-01T17:55:44.864Z,9.20
2018-11-01T17:58:13.412Z,9.20
2018-11-01T18:00:41.976Z,9.20
2018-11-01T18:03:10.488Z,9.20
2018-11-01T18:05:39.182Z,9.20
2018-11-01T18:08:07.816Z,9.20
2018-11-01T18:10:36.337Z,9.20
2018-11-01T18:13:04.929Z,9.20
2018-11-01T18:15:33.490Z,9.10
2018-11-01T18:18:02.168Z,9.20
2018-11-01T18:20:30.688Z,9.20
2018-11-01T18:22:59.271Z,9.20
2018-11-01T18:25:27.849Z,9.10
2018-11-01T18:27:56.499Z,9.10
2018-11-01T18:30:25.077Z,9.10
2018-11-01T18:32:53.879Z,9.10
2018-11-01T18:35:22.305Z,9.10
2018-11-01T18:37:50.840Z,9.10
2018-11-01T18:40:19.443Z,9.10
2018-11-01T18:42:47.998Z,9.10
2018-11-01T18:45:16.691Z,9.10
2018-11-01T18:47:45.305Z,9.10
2018-11-01T18:50:15.291Z,9.10
2018-11-01T18:52:43.855Z,9.10
2018-11-01T18:55:12.856Z,9.10
2018-11-01T18:57:41.722Z,9.00
2018-11-01T19:00:13.083Z,9.00
2018-11-01T19:02:45.275Z,9.00
2018-11-01T19:05:13.982Z,9.00
2018-11-01T19:07:43.160Z,9.00
2018-11-01T19:10:13.019Z,9.00
2018-11-01T19:12:41.574Z,9.00
2018-11-01T19:15:11.227Z,9.00
2018-11-01T19:17:40.467Z,9.00
2018-11-01T19:20:10.020Z,9.00
2018-11-01T19:22:38.523Z,9.00
2018-11-01T19:25:07.815Z,9.00
2018-11-01T19:27:36.455Z,9.00
2018-11-01T19:30:05.708Z,9.00
2018-11-01T19:32:34.250Z,9.00
2018-11-01T19:35:02.949Z,9.10
2018-11-01T19:37:31.520Z,9.10
2018-11-01T19:40:00.221Z,9.10
2018-11-01T19:42:28.648Z,9.10
2018-11-01T19:44:57.366Z,9.10
2018-11-01T19:47:25.891Z,9.10
2018-11-01T19:49:54.435Z,9.10
2018-11-01T19:52:22.942Z,9.10
2018-11-01T19:54:51.569Z,9.10
2018-11-01T19:57:20.124Z,9.10
2018-11-01T19:59:48.684Z,9.20
2018-11-01T20:02:17.204Z,9.20
2018-11-01T20:04:45.757Z,9.20
2018-11-01T20:07:14.296Z,9.20
2018-11-01T20:09:42.826Z,9.20
2018-11-01T20:12:11.393Z,9.20
2018-11-01T20:14:40.045Z,9.20
2018-11-01T20:17:08.545Z,9.20
2018-11-01T20:19:37.171Z,9.20
2018-11-01T20:22:06.523Z,9.20
2018-11-01T20:24:35.340Z,9.20
2018-11-01T20:27:03.910Z,9.20
2018-11-01T20:29:32.436Z,9.20
2018-11-01T20:32:00.945Z,9.20
2018-11-01T20:34:29.537Z,9.10
2018-11-01T20:36:58.047Z,9.10
2018-11-01T20:39:26.653Z,9.10
2018-11-01T20:41:58.826Z,9.00
2018-11-01T20:44:27.827Z,9.00
2018-11-01T20:46:56.765Z,8.90
2018-11-01T20:49:25.461Z,8.90
2018-11-01T20:51:54.025Z,8.90
2018-11-01T20:54:22.591Z,8.80
2018-11-01T20:56:51.091Z,8.80
2018-11-01T20:59:19.710Z,8.80
2018-11-01T21:01:48.239Z,8.70
2018-11-01T21:04:16.745Z,8.70
2018-11-01T21:06:45.301Z,8.70
2018-11-01T21:09:13.787Z,8.70
2018-11-01T21:11:42.583Z,8.60
2018-11-01T21:14:10.834Z,8.60
2018-11-01T21:16:39.351Z,8.60
2018-11-01T21:19:08.010Z,8.50
2018-11-01T21:21:36.844Z,8.50
2018-11-01T21:24:05.498Z,8.50
2018-11-01T21:26:34.203Z,8.50
2018-11-01T21:29:02.743Z,8.50
2018-11-01T21:31:31.311Z,8.50
2018-11-01T21:33:59.864Z,8.50
2018-11-01T21:36:28.398Z,8.50
2018-11-01T21:38:56.980Z,8.50
2018-11-01T21:41:25.528Z,8.50
2018-11-01T21:43:54.070Z,8.50
2018-11-01T21:46:22.616Z,8.50
2018-11-01T21:48:51.279Z,8.50
2018-11-01T21:51:19.767Z,8.60
2018-11-01T21:53:48.279Z,8.60
2018-11-01T21:56:16.814Z,8.70
2018-11-01T21:58:45.280Z,8.60
2018-11-01T22:01:13.798Z,8.60
2018-11-01T22:03:42.381Z,8.60
2018-11-01T22:06:10.974Z,8.60
2018-11-01T22:08:39.553Z,8.50
2018-11-01T22:11:08.131Z,8.50
2018-11-01T22:13:36.710Z,8.50
2018-11-01T22:16:05.517Z,8.60
2018-11-01T22:18:34.080Z,8.60
2018-11-01T22:21:02.530Z,8.70
2018-11-01T22:23:31.075Z,8.70
2018-11-01T22:25:59.570Z,8.80
2018-11-01T22:28:28.111Z,8.80
2018-11-01T22:30:56.622Z,8.80
2018-11-01T22:33:25.334Z,8.80
2018-11-01T22:35:53.848Z,8.80
2018-11-01T22:38:22.366Z,8.80
2018-11-01T22:40:50.979Z,8.80
2018-11-01T22:43:19.543Z,8.80
2018-11-01T22:45:48.073Z,8.80
2018-11-01T22:48:16.596Z,8.80
2018-11-01T22:50:45.077Z,8.80
2018-11-01T22:53:13.588Z,8.80
2018-11-01T22:55:42.085Z,8.80
2018-11-01T22:58:10.616Z,8.80
2018-11-01T23:00:44.328Z,8.80
2018-11-01T23:03:13.572Z,8.70
2018-11-01T23:05:42.531Z,8.70
2018-11-01T23:08:11.081Z,8.70
2018-11-01T23:10:39.572Z,8.70
2018-11-01T23:13:08.192Z,8.70
2018-11-01T23:15:36.767Z,8.70
2018-11-01T23:18:05.276Z,8.60
2018-11-01T23:20:33.851Z,8.60
2018-11-01T23:23:02.355Z,8.70
2018-11-01T23:25:30.994Z,8.70
2018-11-01T23:27:59.685Z,8.70
2018-11-01T23:30:28.414Z,8.70
2018-11-01T23:32:57.175Z,8.70
2018-11-01T23:35:25.887Z,8.70
2018-11-01T23:37:59.697Z,8.60
2018-11-01T23:40:33.757Z,8.70
2018-11-01T23:43:07.610Z,8.60
2018-11-01T23:45:41.667Z,8.70
2018-11-01T23:48:09.546Z,8.60
2018-11-01T23:50:42.549Z,8.60
2018-11-01T23:53:16.577Z,8.60
2018-11-01T23:55:45.245Z,8.60
2018-11-01T23:58:14.134Z,8.60
